Time;durP1;ratioP1;P1;durP2;ratioP2;P2;SDS_P1;SDS_P2;PMS_P1;PMS_P2;Temp;Humidity;BMP_temperature;BMP_pressure;BME280_temperature;BME280_humidity;BME280_pressure;Samples;Min_cycle;Max_cycle;Signal;HPM_P1;HPM_P2
2023/03/26 00:02:43;;;;;;;2.42;0.90;;;;;;;9.56;72.34;99497.22;10409481;28;20224;-58
2023/03/26 00:07:46;;;;;;;3.55;1.08;;;;;;;9.54;72.51;99494.72;10408210;28;20036;-59
2023/03/26 00:12:47;;;;;;;3.13;1.17;;;;;;;9.44;73.35;99500.97;10408778;28;20049;-59
2023/03/26 00:17:49;;;;;;;4.05;1.27;;;;;;;9.52;73.09;99498.50;10408596;28;20053;-60
2023/03/26 00:22:53;;;;;;;3.65;1.70;;;;;;;9.59;72.77;99496.97;10410957;28;20637;-62
2023/03/26 00:27:56;;;;;;;2.95;0.90;;;;;;;9.49;73.00;99502.25;10392701;28;20053;-58
2023/03/26 00:32:58;;;;;;;3.33;1.15;;;;;;;9.54;72.60;99494.72;10409514;28;20049;-60
2023/03/26 00:38:00;;;;;;;3.70;1.05;;;;;;;9.65;72.03;99501.75;10406405;28;20125;-60
2023/03/26 00:43:08;;;;;;;3.10;0.98;;;;;;;9.60;72.43;99503.97;10409867;28;20616;-61
2023/03/26 00:48:10;;;;;;;4.53;1.55;;;;;;;9.59;72.79;99493.47;10404375;28;20045;-59
2023/03/26 00:53:13;;;;;;;5.88;1.77;;;;;;;9.54;73.28;99509.81;10408512;28;20448;-57
2023/03/26 00:58:15;;;;;;;6.93;1.35;;;;;;;9.51;73.37;99504.78;10406373;28;20136;-58
2023/03/26 01:03:18;;;;;;;6.75;1.60;;;;;;;9.55;73.55;99498.22;10409280;28;20135;-58
2023/03/26 01:08:32;;;;;;;3.67;1.23;;;;;;;9.50;73.61;99485.34;10406113;28;20041;-58
2023/03/26 01:13:36;;;;;;;3.35;1.20;;;;;;;9.32;74.61;99476.31;10373578;28;20045;-58
2023/03/26 01:18:39;;;;;;;;;;;;;;;9.28;74.47;99464.31;10375003;28;20049;-58
2023/03/26 01:23:50;;;;;;;8.18;2.00;;;;;;;9.25;74.85;99464.56;10378557;28;19954;-58
2023/03/26 01:28:56;;;;;;;2.95;1.13;;;;;;;9.17;74.92;99452.81;10416539;28;20828;-58
2023/03/26 01:34:11;;;;;;;5.57;1.30;;;;;;;9.25;74.14;99451.28;10405498;28;20052;-57
2023/03/26 01:39:18;;;;;;;5.60;1.20;;;;;;;9.31;74.00;99450.78;10405567;28;20049;-59
2023/03/26 01:44:34;;;;;;;5.93;1.33;;;;;;;9.18;74.32;99440.38;10406197;28;20060;-58
2023/03/26 01:49:35;;;;;;;6.32;1.52;;;;;;;9.14;74.26;99439.81;10404854;28;20049;-58
2023/03/26 01:54:37;;;;;;;5.35;1.38;;;;;;;9.20;74.25;99433.97;10397732;28;20191;-58
2023/03/26 01:59:54;;;;;;;6.45;1.60;;;;;;;9.19;74.67;99432.25;10406373;28;20059;-58
2023/03/26 02:05:21;;;;;;;5.55;1.55;;;;;;;9.21;74.80;99429.47;10409407;28;20199;-58
2023/03/26 02:10:28;;;;;;;3.97;1.17;;;;;;;9.30;74.54;99425.19;10398456;28;20048;-58
2023/03/26 02:15:31;;;;;;;5.55;1.60;;;;;;;9.26;74.94;99413.97;10403454;28;20053;-59
2023/03/26 02:20:32;;;;;;;7.70;1.85;;;;;;;9.18;75.35;99401.38;10408626;28;20045;-58
2023/03/26 02:25:35;;;;;;;5.13;1.92;;;;;;;9.19;75.37;99395.09;10406379;28;20425;-58
2023/03/26 02:30:37;;;;;;;3.58;1.35;;;;;;;9.23;75.22;99390.34;10404762;28;20056;-58
2023/03/26 02:35:38;;;;;;;6.88;1.38;;;;;;;9.19;75.69;99386.28;10403786;28;20051;-58
2023/03/26 02:40:40;;;;;;;3.25;1.08;;;;;;;9.17;75.87;99374.94;10403061;28;20049;-58
2023/03/26 02:45:42;;;;;;;4.95;1.55;;;;;;;9.17;75.81;99359.88;10404130;28;20048;-57
2023/03/26 02:50:43;;;;;;;5.55;1.75;;;;;;;9.24;75.40;99368.13;10404036;28;20061;-57
2023/03/26 02:55:45;;;;;;;6.95;1.70;;;;;;;9.29;74.96;99357.09;10401365;28;20041;-57
2023/03/26 03:00:49;;;;;;;9.27;2.00;;;;;;;9.33;75.16;99358.50;10403022;28;20052;-57
2023/03/26 03:05:52;;;;;;;7.32;1.77;;;;;;;9.28;75.43;99355.44;10402024;28;20053;-58
2023/03/26 03:11:11;;;;;;;5.20;1.60;;;;;;;9.31;75.43;99341.88;10399810;28;20052;-57
2023/03/26 03:16:15;;;;;;;6.63;1.88;;;;;;;9.31;75.21;99355.16;10393446;28;20124;-60
2023/03/26 03:21:17;;;;;;;4.53;1.73;;;;;;;9.28;75.41;99342.16;10401050;28;20044;-60
2023/03/26 03:26:20;;;;;;;10.35;1.98;;;;;;;9.23;75.63;99341.72;10402271;28;20423;-57
2023/03/26 03:31:23;;;;;;;4.20;1.50;;;;;;;9.26;76.10;99333.47;10402895;28;20127;-57
2023/03/26 03:36:26;;;;;;;7.22;2.05;;;;;;;9.24;75.90;99322.97;10400950;28;20792;-58
2023/03/26 03:41:28;;;;;;;4.30;1.55;;;;;;;9.16;76.68;99307.75;10400189;28;20087;-57
2023/03/26 03:46:31;;;;;;;5.65;1.90;;;;;;;9.31;76.17;99307.34;10399748;28;20048;-58
2023/03/26 03:51:34;;;;;;;8.57;2.60;;;;;;;9.28;76.20;99299.66;10399177;28;20057;-57
2023/03/26 03:56:36;;;;;;;4.80;1.52;;;;;;;9.28;77.03;99297.00;10405072;28;20056;-58
2023/03/26 04:01:38;;;;;;;5.03;1.50;;;;;;;9.32;76.90;99277.13;10399128;28;20057;-57
2023/03/26 04:06:39;;;;;;;6.70;1.90;;;;;;;9.36;77.53;99275.88;10391932;28;20803;-58
2023/03/26 04:11:41;;;;;;;6.55;2.10;;;;;;;9.40;77.58;99258.69;10394243;28;20052;-57
2023/03/26 04:16:43;;;;;;;4.78;1.92;;;;;;;9.36;78.08;99257.31;10393119;28;20053;-57
2023/03/26 04:21:44;;;;;;;8.13;2.13;;;;;;;9.36;78.27;99267.91;10397403;28;20063;-57
2023/03/26 04:26:46;;;;;;;6.00;1.90;;;;;;;9.39;78.80;99262.34;10404161;28;20061;-57
2023/03/26 04:31:49;;;;;;;8.20;3.42;;;;;;;9.26;79.68;99246.66;10408531;28;20217;-58
2023/03/26 04:36:53;;;;;;;7.13;2.55;;;;;;;9.30;79.94;99248.06;10401738;28;20121;-56
2023/03/26 04:41:56;;;;;;;10.35;2.25;;;;;;;9.27;80.15;99236.91;10403373;28;20049;-58
2023/03/26 04:46:58;;;;;;;6.97;1.35;;;;;;;9.26;79.58;99214.78;10397610;28;20049;-57
2023/03/26 04:52:00;;;;;;;4.78;1.60;;;;;;;9.31;79.23;99206.44;10403612;28;20055;-59
2023/03/26 04:57:05;;;;;;;4.47;1.75;;;;;;;9.30;79.21;99192.31;10403042;28;20055;-58
2023/03/26 05:02:07;;;;;;;6.70;1.85;;;;;;;9.29;79.34;99187.13;10402176;28;20825;-58
2023/03/26 05:07:12;;;;;;;6.40;1.60;;;;;;;9.35;79.09;99194.53;10402574;28;20127;-59
2023/03/26 05:12:13;;;;;;;8.20;1.80;;;;;;;9.32;79.08;99184.19;10411241;28;20206;-58
2023/03/26 05:17:17;;;;;;;6.15;2.17;;;;;;;9.19;79.37;99168.56;10398645;28;20190;-59
2023/03/26 05:22:19;;;;;;;5.60;1.77;;;;;;;9.26;79.48;99155.53;10403257;28;20049;-59
2023/03/26 05:27:20;;;;;;;8.80;2.42;;;;;;;9.31;79.11;99142.69;10401383;28;20053;-57
2023/03/26 05:32:22;;;;;;;7.68;1.80;;;;;;;9.31;79.04;99127.59;10397499;28;20041;-59
2023/03/26 05:37:23;;;;;;;10.38;1.98;;;;;;;9.41;78.86;99106.31;10400722;28;20064;-58
2023/03/26 05:42:25;;;;;;;4.40;1.70;;;;;;;9.53;78.17;99107.84;10398359;28;20049;-60
2023/03/26 05:47:27;;;;;;;6.57;2.00;;;;;;;9.58;78.39;99111.84;10402001;28;20105;-58
2023/03/26 05:52:29;;;;;;;6.18;1.58;;;;;;;9.61;78.46;99100.94;10400642;28;20060;-60
2023/03/26 05:57:31;;;;;;;4.95;1.98;;;;;;;9.59;78.00;99092.28;10400471;28;20182;-59
2023/03/26 06:02:33;;;;;;;7.78;2.70;;;;;;;9.62;78.21;99092.81;10399095;28;20059;-58
2023/03/26 06:07:35;;;;;;;7.30;2.47;;;;;;;9.64;77.82;99080.25;10401370;28;20057;-59
2023/03/26 06:12:37;;;;;;;7.35;1.85;;;;;;;9.72;78.05;99098.09;10393850;28;20056;-58
2023/03/26 06:17:39;;;;;;;8.48;2.08;;;;;;;9.73;77.33;99082.00;10407303;28;20435;-59
2023/03/26 06:22:41;;;;;;;7.90;2.42;;;;;;;9.72;77.53;99069.69;10397981;28;20056;-59
2023/03/26 06:27:43;;;;;;;6.40;1.85;;;;;;;9.84;76.89;99065.03;10396095;28;20049;-58
2023/03/26 06:32:45;;;;;;;8.13;2.10;;;;;;;9.91;76.99;99044.03;10396317;28;20156;-58
2023/03/26 06:37:47;;;;;;;7.57;2.47;;;;;;;9.99;76.71;99036.13;10396420;28;20044;-58
2023/03/26 06:42:48;;;;;;;5.00;2.20;;;;;;;10.06;76.04;99025.75;10397061;28;20056;-63
2023/03/26 06:48:10;;;;;;;6.38;1.95;;;;;;;10.12;75.68;99030.47;10399560;28;20056;-59
2023/03/26 06:53:11;;;;;;;7.03;2.03;;;;;;;10.15;76.18;99014.19;10389900;28;20067;-59
2023/03/26 06:58:13;;;;;;;7.63;1.70;;;;;;;10.17;75.93;99014.06;10396054;28;20063;-59
2023/03/26 07:03:16;;;;;;;8.20;2.90;;;;;;;10.19;75.74;99015.56;10398582;28;20138;-60
2023/03/26 07:08:19;;;;;;;10.70;2.75;;;;;;;10.20;75.35;99017.22;10392308;28;20061;-60
2023/03/26 07:13:21;;;;;;;7.50;2.38;;;;;;;10.19;74.67;99002.28;10400473;28;21350;-60
2023/03/26 07:18:22;;;;;;;9.00;2.80;;;;;;;10.21;74.93;99010.94;10391634;28;20056;-59
2023/03/26 07:23:24;;;;;;;9.00;2.25;;;;;;;10.21;75.47;99002.13;10389344;28;20468;-63
2023/03/26 07:28:38;;;;;;;9.38;2.40;;;;;;;10.20;74.81;98993.28;10393694;28;20126;-59
2023/03/26 07:33:50;;;;;;;7.03;1.98;;;;;;;10.24;75.84;98991.19;10398535;28;20056;-59
2023/03/26 07:39:21;;;;;;;6.65;2.13;;;;;;;10.30;76.53;98979.06;10408321;28;20040;-59
2023/03/26 07:44:43;;;;;;;8.65;3.03;;;;;;;10.33;76.92;98971.69;10390516;28;20091;-59
2023/03/26 07:49:45;;;;;;;8.98;2.40;;;;;;;10.34;77.94;98957.38;10394955;28;20083;-59
2023/03/26 07:54:47;;;;;;;6.82;2.25;;;;;;;10.32;79.14;98958.50;10390331;28;20082;-61
2023/03/26 07:59:56;;;;;;;8.45;3.40;;;;;;;10.33;80.80;98949.50;10402562;28;20056;-59
2023/03/26 08:05:09;;;;;;;9.02;2.42;;;;;;;10.32;80.61;98938.03;10403584;28;20159;-59
2023/03/26 08:10:17;;;;;;;5.80;2.55;;;;;;;10.27;81.46;98927.88;10404836;28;20055;-60
2023/03/26 08:15:31;;;;;;;15.00;11.35;;;;;;;10.25;83.20;98921.88;10404564;28;20146;-59
2023/03/26 08:20:48;;;;;;;37.00;6.65;;;;;;;10.31;84.36;98919.59;10400065;28;20049;-58
2023/03/26 08:26:04;;;;;;;7.05;2.08;;;;;;;10.27;83.32;98922.56;10372701;28;20293;-59
2023/03/26 08:31:10;;;;;;;6.90;2.30;;;;;;;10.29;83.82;98919.75;10397380;28;20122;-69
2023/03/26 08:36:12;;;;;;;7.32;2.00;;;;;;;10.33;84.72;98914.94;10391670;28;20065;-59
2023/03/26 08:41:24;;;;;;;4.82;2.28;;;;;;;10.39;83.88;98915.19;10391587;28;20063;-60
2023/03/26 08:46:31;;;;;;;2.97;1.58;;;;;;;10.40;83.39;98916.88;10365497;28;20095;-59
2023/03/26 08:51:51;;;;;;;6.93;2.15;;;;;;;10.35;83.73;98913.00;10349293;28;20057;-58
2023/03/26 08:57:16;;;;;;;5.47;2.40;;;;;;;10.23;84.97;98910.53;10389593;28;20055;-59
2023/03/26 09:02:21;;;;;;;;;;;;;;;10.16;86.31;98909.50;10388328;28;20497;-60
2023/03/26 09:07:45;;;;;;;9.40;3.80;;;;;;;10.18;86.73;98888.09;10390464;28;19924;-59
2023/03/26 09:13:02;;;;;;;5.65;2.17;;;;;;;10.14;87.26;98887.53;10389071;28;20593;-60
2023/03/26 09:18:31;;;;;;;6.55;2.38;;;;;;;10.16;88.05;98880.25;10393381;28;20397;-60
2023/03/26 09:23:51;;;;;;;4.60;1.92;;;;;;;10.14;87.41;98874.25;10389352;28;20053;-59
2023/03/26 09:28:59;;;;;;;7.05;2.40;;;;;;;10.12;87.50;98883.34;10392373;28;20773;-58
2023/03/26 09:34:10;;;;;;;4.70;1.83;;;;;;;10.13;86.74;98867.25;10393660;28;20512;-59
2023/03/26 09:39:20;;;;;;;3.55;1.77;;;;;;;10.19;85.97;98871.13;10400094;28;20512;-59
2023/03/26 09:44:37;;;;;;;5.85;1.63;;;;;;;10.04;86.83;98861.06;10396007;28;20078;-59
2023/03/26 09:50:05;;;;;;;4.45;1.65;;;;;;;10.04;84.71;98844.25;10398083;28;20164;-59
2023/03/26 09:55:22;;;;;;;5.28;1.45;;;;;;;9.97;82.22;98845.84;10398861;28;20044;-59
2023/03/26 10:00:55;;;;;;;5.90;1.77;;;;;;;10.05;82.44;98832.63;10392826;28;20045;-58
2023/03/26 10:06:18;;;;;;;3.95;1.55;;;;;;;10.20;80.67;98844.38;10389867;28;20934;-60
2023/03/26 10:11:32;;;;;;;3.95;1.40;;;;;;;10.30;82.95;98844.28;10393313;28;20426;-59
2023/03/26 10:16:56;;;;;;;3.38;1.83;;;;;;;10.21;82.28;98848.72;10394921;28;20045;-60
2023/03/26 10:22:20;;;;;;;3.40;1.42;;;;;;;10.17;83.34;98836.72;10391161;28;20126;-59
2023/03/26 10:27:46;;;;;;;6.07;2.33;;;;;;;10.29;83.17;98824.00;10393741;28;20128;-59
2023/03/26 10:33:01;;;;;;;4.43;1.35;;;;;;;10.41;81.50;98817.44;10395762;28;20122;-58
2023/03/26 10:38:34;;;;;;;4.07;1.58;;;;;;;10.82;80.02;98808.81;10396017;28;20056;-60
2023/03/26 10:44:04;;;;;;;3.13;1.25;;;;;;;11.25;77.82;98803.47;10393180;28;20055;-59
2023/03/26 10:49:26;;;;;;;3.80;1.02;;;;;;;11.41;76.82;98792.00;10397342;28;20044;-61
2023/03/26 10:54:46;;;;;;;3.38;1.10;;;;;;;11.22;77.52;98793.97;10393583;28;20059;-60
2023/03/26 10:59:47;;;;;;;3.13;1.40;;;;;;;11.22;78.01;98793.97;10394753;28;20683;-60
2023/03/26 11:04:58;;;;;;;2.22;0.90;;;;;;;11.03;77.40;98783.59;10396911;28;20056;-58
2023/03/26 11:10:16;;;;;;;1.80;0.90;;;;;;;11.19;76.87;98778.31;10390638;28;20071;-60
2023/03/26 11:15:31;;;;;;;4.53;1.20;;;;;;;11.61;76.65;98766.69;10389852;28;20052;-61
2023/03/26 11:20:56;;;;;;;3.10;1.00;;;;;;;11.87;73.10;98765.69;10388243;28;20090;-59
2023/03/26 11:26:40;;;;;;;4.63;1.35;;;;;;;11.42;74.66;98761.69;10382920;28;20055;-59
2023/03/26 11:31:54;;;;;;;4.60;3.55;;;;;;;11.24;75.88;98757.34;10395922;28;20828;-60
2023/03/26 11:36:57;;;;;;;5.03;4.60;;;;;;;11.00;78.37;98767.97;10394000;28;20051;-60
2023/03/26 11:42:10;;;;;;;2.10;1.10;;;;;;;10.85;78.00;98760.59;10404459;28;20869;-59
2023/03/26 11:47:17;;;;;;;18.15;12.25;;;;;;;10.98;79.96;98762.78;10402673;28;20137;-60
2023/03/26 11:52:20;;;;;;;8.52;7.72;;;;;;;11.23;81.39;98753.03;10400437;28;20164;-60
2023/03/26 11:57:28;;;;;;;2.22;1.50;;;;;;;11.50;76.98;98748.41;10401235;28;20267;-60
2023/03/26 12:02:37;;;;;;;1.85;1.23;;;;;;;11.81;75.93;98743.22;10399070;28;20053;-61
2023/03/26 12:07:53;;;;;;;11.63;8.85;;;;;;;11.96;75.51;98743.38;10396759;28;20286;-59
2023/03/26 12:13:01;;;;;;;5.88;2.75;;;;;;;11.94;76.60;98726.72;10404623;28;20599;-59
2023/03/26 12:18:22;;;;;;;4.00;3.20;;;;;;;11.72;76.21;98725.53;10401108;28;20048;-59
2023/03/26 12:23:37;;;;;;;4.68;1.67;;;;;;;11.65;77.29;98720.06;10398212;28;20045;-59
2023/03/26 12:28:48;;;;;;;14.55;11.30;;;;;;;12.05;76.42;98714.03;10399707;28;20992;-63
2023/03/26 12:34:05;;;;;;;6.43;5.13;;;;;;;12.89;72.20;98714.34;10405305;28;20064;-61
2023/03/26 12:39:29;;;;;;;2.65;1.63;;;;;;;12.87;70.88;98703.00;10403864;28;20455;-60
2023/03/26 12:44:54;;;;;;;2.92;0.82;;;;;;;14.74;65.43;98705.94;10399122;28;20800;-64
2023/03/26 12:50:00;;;;;;;3.50;1.38;;;;;;;14.59;64.41;98697.06;10401786;28;20671;-58
2023/03/26 12:55:30;;;;;;;1.67;0.70;;;;;;;13.86;68.29;98686.22;10398229;28;20622;-62
2023/03/26 13:00:50;;;;;;;8.65;7.72;;;;;;;16.13;62.88;98672.50;10400553;28;20145;-59
2023/03/26 13:06:09;;;;;;;5.03;4.55;;;;;;;22.64;44.55;98664.78;10404813;28;20443;-60
2023/03/26 13:11:29;;;;;;;5.78;5.22;;;;;;;24.98;36.47;98670.56;10399522;28;20083;-60
2023/03/26 13:17:03;;;;;;;1.65;1.30;;;;;;;20.39;44.72;98667.97;10404202;28;20645;-62
2023/03/26 13:22:37;;;;;;;3.85;3.42;;;;;;;16.95;54.14;98669.97;10394059;28;20060;-59
2023/03/26 13:27:54;;;;;;;2.47;0.80;;;;;;;15.13;60.66;98656.47;10401775;28;20075;-62
2023/03/26 13:33:13;;;;;;;3.10;1.85;;;;;;;19.03;50.71;98644.25;10401374;28;20562;-65
2023/03/26 13:38:31;;;;;;;15.77;14.70;;;;;;;19.14;48.96;98623.88;10398412;28;20755;-61
2023/03/26 13:44:04;;;;;;;3.33;0.98;;;;;;;17.66;51.46;98631.69;10401012;28;20230;-61
2023/03/26 13:49:15;;;;;;;2.00;0.50;;;;;;;16.35;56.21;98629.44;10398808;28;20049;-61
2023/03/26 13:54:22;;;;;;;3.40;2.35;;;;;;;16.63;55.93;98631.19;10398351;28;20201;-60
2023/03/26 13:59:43;;;;;;;2.88;2.50;;;;;;;15.45;54.93;98627.47;10399874;28;20055;-60
2023/03/26 14:04:49;;;;;;;1.40;0.50;;;;;;;14.69;58.06;98645.94;10401866;28;20515;-60
2023/03/26 14:09:57;;;;;;;1.77;0.70;;;;;;;14.23;60.01;98628.25;10401268;28;20481;-60
2023/03/26 14:15:03;;;;;;;1.15;0.28;;;;;;;14.69;59.80;98622.66;10398244;28;20061;-60
2023/03/26 14:20:16;;;;;;;2.58;1.52;;;;;;;14.93;57.85;98631.34;10398485;28;20049;-61
2023/03/26 14:25:50;;;;;;;2.50;0.70;;;;;;;14.71;57.48;98615.25;10398542;28;20046;-61
2023/03/26 14:31:11;;;;;;;0.88;0.22;;;;;;;14.84;57.43;98610.00;10397085;28;20053;-61
2023/03/26 14:36:32;;;;;;;1.58;0.50;;;;;;;14.65;57.94;98607.97;10394502;28;20057;-60
2023/03/26 14:41:52;;;;;;;1.48;0.80;;;;;;;14.31;56.43;98601.41;10398118;28;20045;-59
2023/03/26 14:47:09;;;;;;;1.42;0.50;;;;;;;14.23;54.19;98596.16;10393926;28;20154;-58
2023/03/26 14:52:27;;;;;;;2.63;1.17;;;;;;;14.37;55.95;98583.75;10398791;28;20057;-58
2023/03/26 14:57:54;;;;;;;2.45;0.70;;;;;;;14.28;53.41;98572.34;10391991;28;20062;-59
2023/03/26 15:03:12;;;;;;;1.58;0.52;;;;;;;14.25;53.37;98570.03;10389826;28;20667;-58
2023/03/26 15:08:36;;;;;;;2.83;0.68;;;;;;;14.02;53.70;98557.63;10393409;28;20052;-59
2023/03/26 15:14:02;;;;;;;1.03;0.53;;;;;;;13.90;53.45;98553.75;10390523;28;20069;-58
2023/03/26 15:19:16;;;;;;;2.33;0.65;;;;;;;13.63;53.79;98557.94;10393349;28;20048;-61
2023/03/26 15:24:20;;;;;;;2.83;0.32;;;;;;;13.83;53.44;98552.88;10394784;28;20137;-60
2023/03/26 15:29:53;;;;;;;2.03;0.38;;;;;;;13.92;53.19;98547.22;10389596;28;20151;-59
2023/03/26 15:35:23;;;;;;;4.40;0.90;;;;;;;13.90;52.32;98564.47;10396536;28;20103;-59
2023/03/26 15:40:48;;;;;;;2.53;0.90;;;;;;;13.61;51.82;98582.19;10392773;28;20041;-67
2023/03/26 15:45:57;;;;;;;2.75;0.43;;;;;;;13.42;52.35;98592.41;10393852;28;20109;-60
2023/03/26 15:51:08;;;;;;;2.20;0.43;;;;;;;13.27;52.52;98597.69;10397667;28;20135;-59
2023/03/26 15:56:24;;;;;;;2.38;0.82;;;;;;;12.90;54.07;98673.28;10396880;28;20582;-61
2023/03/26 16:01:48;;;;;;;0.63;0.20;;;;;;;11.37;59.83;98698.25;10394899;28;20048;-59
2023/03/26 16:07:02;;;;;;;1.40;0.60;;;;;;;10.96;66.95;98707.06;10394772;28;20052;-59
2023/03/26 16:12:16;;;;;;;4.18;1.83;;;;;;;10.55;69.60;98709.63;10394018;28;20076;-59
2023/03/26 16:17:22;;;;;;;3.50;2.17;;;;;;;10.52;71.05;98701.09;10394391;28;20727;-60
2023/03/26 16:22:58;;;;;;;2.08;0.50;;;;;;;10.70;71.60;98683.19;10399469;28;20124;-58
2023/03/26 16:28:11;;;;;;;1.00;0.35;;;;;;;10.86;72.34;98678.91;10398147;28;20740;-58
2023/03/26 16:33:17;;;;;;;2.53;0.90;;;;;;;11.13;73.19;98699.91;10401696;28;20750;-54
2023/03/26 16:38:23;;;;;;;4.15;1.10;;;;;;;11.29;71.96;98711.59;10398940;28;20111;-55
2023/03/26 16:43:38;;;;;;;1.75;1.48;;;;;;;11.16;69.53;98712.06;10396318;28;20152;-56
2023/03/26 16:48:44;;;;;;;1.53;1.03;;;;;;;11.07;71.70;98715.72;10396884;28;20115;-58
2023/03/26 16:53:56;;;;;;;1.20;0.80;;;;;;;11.03;69.76;98709.88;10399930;28;20306;-58
2023/03/26 16:59:06;;;;;;;1.20;0.45;;;;;;;10.76;71.50;98713.66;10398225;28;20048;-57
2023/03/26 17:04:22;;;;;;;1.42;0.50;;;;;;;10.61;72.16;98711.63;10395917;28;20060;-57
2023/03/26 17:09:50;;;;;;;1.38;0.90;;;;;;;10.65;72.89;98711.31;10395347;28;20068;-58
2023/03/26 17:15:18;;;;;;;1.80;0.80;;;;;;;10.66;73.48;98719.13;10395041;28;20049;-58
2023/03/26 17:20:34;;;;;;;2.17;0.98;;;;;;;10.66;73.09;98726.25;10389773;28;20763;-57
2023/03/26 17:25:43;;;;;;;1.95;1.00;;;;;;;10.61;74.01;98722.28;10394300;28;20052;-59
2023/03/26 17:31:07;;;;;;;2.53;1.20;;;;;;;10.66;73.63;98728.91;10380546;28;20052;-59
2023/03/26 17:36:21;;;;;;;2.35;0.60;;;;;;;10.63;72.84;98734.56;10400555;28;20059;-58
2023/03/26 17:41:48;;;;;;;2.00;0.60;;;;;;;10.65;72.57;98737.91;10388879;28;20057;-58
2023/03/26 17:46:54;;;;;;;2.13;0.45;;;;;;;10.42;73.12;98738.50;10359292;28;20449;-58
2023/03/26 17:52:01;;;;;;;2.08;1.08;;;;;;;10.45;72.58;98743.50;10383605;28;20091;-60
2023/03/26 17:57:40;;;;;;;0.80;0.40;;;;;;;10.53;73.17;98743.50;10397861;28;20059;-57
2023/03/26 18:02:54;;;;;;;3.55;0.85;;;;;;;10.60;72.42;98754.38;10384266;28;20203;-59
2023/03/26 18:08:22;;;;;;;1.92;0.75;;;;;;;10.50;73.26;98767.78;10390138;28;20052;-58
2023/03/26 18:13:38;;;;;;;3.75;0.93;;;;;;;10.47;75.71;98773.41;10401968;28;20044;-57
2023/03/26 18:19:01;;;;;;;3.05;1.10;;;;;;;10.55;77.33;98785.91;10397123;28;20643;-58
2023/03/26 18:24:05;;;;;;;3.05;1.55;;;;;;;10.55;77.25;98784.13;10389640;28;20036;-58
2023/03/26 18:29:18;;;;;;;1.98;1.38;;;;;;;10.32;78.66;98786.44;10394437;28;20825;-58
2023/03/26 18:34:21;;;;;;;8.30;5.88;;;;;;;10.30;81.29;98782.25;10389960;28;20704;-59
2023/03/26 18:39:22;;;;;;;3.17;2.03;;;;;;;10.47;79.22;98788.56;10395989;28;20057;-58
2023/03/26 18:44:24;;;;;;;2.53;1.27;;;;;;;10.45;79.82;98783.41;10396480;28;20068;-58
2023/03/26 18:49:28;;;;;;;2.63;0.88;;;;;;;10.47;79.13;98783.25;10394676;28;20052;-58
2023/03/26 18:54:34;;;;;;;3.83;3.05;;;;;;;10.47;80.80;98789.38;10394787;28;20059;-58
2023/03/26 18:59:43;;;;;;;2.35;0.85;;;;;;;10.49;79.53;98790.03;10393424;28;20138;-60
2023/03/26 19:04:47;;;;;;;1.52;0.73;;;;;;;10.40;78.53;98791.00;10402465;28;20051;-58
2023/03/26 19:09:51;;;;;;;;;;;;;;;10.38;79.63;98795.66;10398106;28;20583;-59
2023/03/26 19:15:11;;;;;;;1.88;0.80;;;;;;;10.41;78.16;98801.47;10395595;28;19936;-58
2023/03/26 19:20:25;;;;;;;1.20;0.65;;;;;;;10.38;78.02;98800.97;10397161;28;20048;-59
2023/03/26 19:25:40;;;;;;;2.97;0.98;;;;;;;10.38;78.48;98800.97;10397453;28;21517;-59
2023/03/26 19:30:44;;;;;;;2.00;0.70;;;;;;;10.37;77.79;98804.63;10386192;28;20053;-59
2023/03/26 19:36:02;;;;;;;1.15;0.70;;;;;;;10.40;77.95;98798.97;10393618;28;20057;-58
2023/03/26 19:41:04;;;;;;;1.13;0.38;;;;;;;10.30;76.29;98803.53;10395854;28;20090;-62
2023/03/26 19:46:12;;;;;;;1.25;0.30;;;;;;;10.31;75.95;98811.38;10396400;28;20052;-59
2023/03/26 19:51:30;;;;;;;0.65;0.20;;;;;;;10.24;76.30;98805.84;10402444;28;20139;-57
2023/03/26 19:56:32;;;;;;;0.80;0.30;;;;;;;10.23;76.22;98803.34;10390005;28;20131;-59
2023/03/26 20:01:35;;;;;;;0.70;0.38;;;;;;;10.19;77.49;98816.13;10402065;28;20044;-59
2023/03/26 20:06:39;;;;;;;1.85;0.60;;;;;;;10.16;77.04;98824.41;10403570;28;20045;-59
2023/03/26 20:11:45;;;;;;;0.82;0.50;;;;;;;10.01;78.77;98837.44;10392853;28;20076;-59
2023/03/26 20:16:47;;;;;;;0.75;0.40;;;;;;;10.09;79.00;98842.81;10403939;28;20057;-58
2023/03/26 20:21:49;;;;;;;2.88;0.70;;;;;;;10.11;77.87;98845.31;10404085;28;20080;-59
2023/03/26 20:26:50;;;;;;;1.65;0.68;;;;;;;9.96;79.91;98852.19;10399813;28;20041;-58
2023/03/26 20:31:52;;;;;;;2.20;0.60;;;;;;;10.07;78.99;98857.25;10400509;28;20734;-58
2023/03/26 20:36:55;;;;;;;1.20;0.60;;;;;;;9.78;79.75;98868.97;10400352;28;20049;-59
2023/03/26 20:42:01;;;;;;;0.75;0.52;;;;;;;9.96;78.00;98881.44;10397456;28;20048;-58
2023/03/26 20:47:03;;;;;;;0.40;0.20;;;;;;;9.95;76.69;98880.56;10398712;28;20049;-57
2023/03/26 20:52:05;;;;;;;0.77;0.30;;;;;;;9.86;76.35;98887.66;10397292;28;20138;-58
2023/03/26 20:57:12;;;;;;;1.17;0.20;;;;;;;9.70;76.78;98893.66;10393275;28;20055;-59
2023/03/26 21:02:13;;;;;;;1.27;0.30;;;;;;;9.49;76.37;98899.25;10398580;28;20060;-61
2023/03/26 21:07:15;;;;;;;0.52;0.22;;;;;;;9.61;76.70;98905.19;10387666;28;20218;-59
2023/03/26 21:12:40;;;;;;;1.42;0.20;;;;;;;9.64;75.45;98941.25;10400734;28;20045;-57
2023/03/26 21:17:42;;;;;;;0.30;0.20;;;;;;;9.58;75.44;98941.81;10401409;28;20045;-57
2023/03/26 21:23:02;;;;;;;0.40;0.10;;;;;;;9.54;74.28;98958.06;10404890;28;20178;-57
2023/03/26 21:28:31;;;;;;;0.52;0.13;;;;;;;9.43;74.61;98971.56;10404871;28;20048;-57
2023/03/26 21:33:44;;;;;;;1.00;0.30;;;;;;;9.35;75.25;98974.94;10397089;28;20210;-58
2023/03/26 21:38:46;;;;;;;2.13;0.90;;;;;;;9.05;75.68;98978.69;10397956;28;20045;-57
2023/03/26 21:43:48;;;;;;;0.80;0.52;;;;;;;9.23;75.72;99001.81;10402850;28;20052;-58
2023/03/26 21:48:49;;;;;;;0.38;0.30;;;;;;;9.18;75.70;99005.75;10403116;28;20529;-58
2023/03/26 21:53:52;;;;;;;0.57;0.43;;;;;;;9.16;75.24;99013.03;10401461;28;20055;-57
2023/03/26 21:59:03;;;;;;;0.63;0.40;;;;;;;9.03;74.33;99025.78;10399165;28;20053;-58
2023/03/26 22:04:25;;;;;;;0.70;0.50;;;;;;;9.09;73.19;99035.81;10404021;28;20055;-57
2023/03/26 22:09:27;;;;;;;1.10;0.68;;;;;;;9.00;73.05;99060.56;10396311;28;20136;-58
2023/03/26 22:14:34;;;;;;;1.20;1.10;;;;;;;8.90;72.75;99080.97;10398531;28;20048;-57
2023/03/26 22:19:35;;;;;;;3.50;1.05;;;;;;;8.90;72.93;99096.91;10401537;28;20059;-57
2023/03/26 22:24:37;;;;;;;1.33;1.20;;;;;;;8.70;73.87;99102.22;10400268;28;20053;-57
2023/03/26 22:29:39;;;;;;;2.08;1.17;;;;;;;8.78;73.42;99115.66;10401320;28;20146;-58
2023/03/26 22:34:40;;;;;;;1.98;1.42;;;;;;;8.65;72.02;99120.38;10399440;28;20178;-57
2023/03/26 22:39:42;;;;;;;2.30;1.77;;;;;;;8.62;70.81;99141.88;10398713;28;20101;-57
2023/03/26 22:44:44;;;;;;;2.38;1.77;;;;;;;8.47;71.20;99147.56;10400415;28;20348;-57
2023/03/26 22:49:46;;;;;;;3.92;2.50;;;;;;;8.38;71.96;99150.19;10398168;28;20117;-57
2023/03/26 22:54:48;;;;;;;2.45;1.92;;;;;;;8.37;72.18;99175.03;10397903;28;20063;-57
2023/03/26 22:59:50;;;;;;;3.45;2.35;;;;;;;8.42;72.40;99186.06;10402022;28;20774;-57
2023/03/26 23:04:52;;;;;;;2.80;1.80;;;;;;;8.37;72.45;99204.19;10398389;28;20053;-57
2023/03/26 23:09:53;;;;;;;4.03;2.00;;;;;;;8.36;72.43;99218.41;10403022;28;20053;-57
2023/03/26 23:14:55;;;;;;;3.20;2.50;;;;;;;8.37;72.82;99217.47;10398972;28;20456;-56
2023/03/26 23:19:56;;;;;;;3.17;2.20;;;;;;;8.40;72.86;99238.41;10400821;28;20155;-57
2023/03/26 23:24:57;;;;;;;2.13;1.90;;;;;;;8.41;73.24;99243.56;10401372;28;20460;-57
2023/03/26 23:30:00;;;;;;;3.55;2.05;;;;;;;8.37;73.12;99271.31;10400535;28;20045;-58
2023/03/26 23:35:01;;;;;;;3.28;1.55;;;;;;;8.36;74.30;99296.19;10401611;28;20533;-61
2023/03/26 23:40:08;;;;;;;2.90;2.00;;;;;;;8.13;73.06;99291.00;10402917;28;20049;-57
2023/03/26 23:45:13;;;;;;;3.40;1.25;;;;;;;8.19;72.25;99310.03;10401957;28;20134;-57
2023/03/26 23:50:15;;;;;;;3.30;1.58;;;;;;;8.19;72.42;99318.00;10399884;28;20055;-57
2023/03/26 23:55:16;;;;;;;2.88;1.50;;;;;;;7.92;72.39;99340.56;10402961;28;20169;-57
